Gridley, IL (61744)

5:57 PM CST on February 14, 2016 (GMT -0600)
Lake Bloomington | | Change Station
CLOSE
Current Station
Personal Weather Station
Location: Hudson, IL
Elevation: 748 ft
Nearby Weather Stations
Active Advisory: Winter Weather Advisory Active Notice: Local Storm Report

Elev 748 ft 40.65 °N, 88.93 °W | Updated 4 seconds ago

Snow
Snow
19.6 °F
Feels Like 20 °F
N
1.8
Wind Variable Wind from ESE
Gusts 2.5 mph

Today
High -- | Low -- °F
--% Chance of Precip.
Yesterday
High -- | Low -- °F
Precip. -- in
Pressure 30.05 in
Visibility 0.8 miles
Clouds Overcast 1100 ft
Windchill 20 °F
Dew Point 12 °F
Humidity 73%
Rainfall 0.00 in
Snow Depth Not available.
6:51 AM 5:28 PM
Waxing Crescent, 46% visible
METAR KPNT 142335Z AUTO 12017KT 3/4SM -SN OVC011 M07/M08 A3005 RMK AO2 T10671077
Pressure 30.05 in
Visibility 0.8 miles
Clouds Overcast 1100 ft
Windchill 20 °F
Dew Point 12 °F
Humidity 73%
Rainfall 0.00 in
Snow Depth Not available.
6:51 AM 5:28 PM
Waxing Crescent, 46% visible
METAR KPNT 142335Z AUTO 12017KT 3/4SM -SN OVC011 M07/M08 A3005 RMK AO2 T10671077

10-Day Weather Forecast

Almanac

Astronomy

Feb. 14, 2016 Rise Set
Actual Time
Civil Twilight
Nautical Twilight
Astronomical Twilight
Moon
Length of Visible Light
Length of Day
Tomorrow will be .
, % of the Moon is Illuminated

Today's Extremes

State Highs State Lows

Community

WunderPhotos

Upload Photos

1,892,929 photos uploaded!

WunderBlog® & News

Nearby

Air Quality

  Air Quality AQ Index Pollutant
Not available.

Snow Depth

Station Depth Elevation

Earthquake Activity

City Distance Mag. Time & Date
Minimum magnitude displayed is 2.5.

Coastal Water Temperatures

Place Temperature

Stations

Nearby Weather Stations

Station Location Temp. Windchill Dew Point Humidity Wind Precip. Elev Updated Type
                   

Watches & Warnings

Winter Weather Advisory
Issued: 3:00 PM CST Feb. 14, 2016 – National Weather Service

... Winter Weather Advisory remains in effect until 6 PM CST this
evening...

* timing... light snow will gradually diminish along and northeast
of a Macomb to Springfield to Lawrenceville line through 6 PM.

* Snow accumulations... 2 to 4 inches of snow fell across the area
through mid afternoon. Less than 1 inch of additional snow will
occur by 6 PM from I-74 north and near the Indiana border.
Patchy freezing drizzle will also be possible late this
afternoon or evening.

* Wind... southeast winds of 10 to 20 mph with gusts of 20 to 25
mph this afternoon will diminish to 5 to 15 mph this evening.

* Main impact... snow-covered roads will create hazardous travel
conditions. Brisk southeasterly winds will cause some blowing
and drifting snow until dusk.

Precautionary/preparedness actions...

A Winter Weather Advisory for snow means that periods of snow
will cause primarily travel difficulties. Be prepared for snow
covered roads and limited visibilities... and use caution while
driving.



07